Time;durP1;ratioP1;P1;durP2;ratioP2;P2;SDS_P1;SDS_P2;PMS_P1;PMS_P2;Temp;Humidity;BMP_temperature;BMP_pressure;BME280_temperature;BME280_humidity;BME280_pressure;Samples;Min_cycle;Max_cycle;Signal;HPM_P1;HPM_P2
2024/04/05 00:01:02;;;;;;;2.22;0.82;;;;;;;;;;5027338;28;20053;-75
2024/04/05 00:03:31;;;;;;;1.35;0.90;;;;;;;;;;5044029;28;20045;-75
2024/04/05 00:06:00;;;;;;;1.00;0.80;;;;;;;;;;5043708;28;20512;-73
2024/04/05 00:08:30;;;;;;;0.93;0.80;;;;;;;;;;5043442;28;20508;-74
2024/04/05 00:11:00;;;;;;;2.95;0.80;;;;;;;;;;5043868;28;20060;-77
2024/04/05 00:13:28;;;;;;;3.13;0.95;;;;;;;;;;5043550;28;20407;-73
2024/04/05 00:15:56;;;;;;;5.03;0.82;;;;;;;;;;5042964;28;20111;-74
2024/04/05 00:18:25;;;;;;;2.03;0.60;;;;;;;;;;5043784;28;20037;-75
2024/04/05 00:20:53;;;;;;;1.98;0.82;;;;;;;;;;5043619;28;20052;-74
2024/04/05 00:23:23;;;;;;;2.45;0.90;;;;;;;;;;5043647;28;20064;-74
2024/04/05 00:26:06;;;;;;;1.85;0.98;;;;;;;;;;5044302;28;20040;-71
2024/04/05 00:28:41;;;;;;;1.75;1.00;;;;;;;;;;5028178;28;20056;-74
2024/04/05 00:31:13;;;;;;;5.32;1.20;;;;;;;;;;5043404;28;20786;-72
2024/04/05 00:33:41;;;;;;;4.80;0.80;;;;;;;;;;5043243;28;20037;-73
2024/04/05 00:36:11;;;;;;;1.90;0.75;;;;;;;;;;5044149;28;20053;-75
2024/04/05 00:38:39;;;;;;;;;;;;;;;;;;5042832;28;20060;-74
2024/04/05 00:41:08;;;;;;;1.67;0.77;;;;;;;;;;5042229;28;20288;-74
2024/04/05 00:43:36;;;;;;;5.32;1.00;;;;;;;;;;5042601;28;20056;-74
2024/04/05 00:46:05;;;;;;;1.92;0.80;;;;;;;;;;5042545;28;20045;-74
2024/04/05 00:48:34;;;;;;;5.38;1.10;;;;;;;;;;5042982;28;20522;-73
2024/04/05 00:51:07;;;;;;;4.03;0.98;;;;;;;;;;5042735;28;20056;-73
2024/04/05 00:53:38;;;;;;;1.77;0.90;;;;;;;;;;5026634;28;20048;-73
2024/04/05 00:56:08;;;;;;;3.92;1.00;;;;;;;;;;5025936;28;20543;-74
2024/04/05 00:58:36;;;;;;;3.13;0.98;;;;;;;;;;5042650;28;20055;-74
2024/04/05 01:01:07;;;;;;;3.90;1.00;;;;;;;;;;5042455;28;20037;-73
2024/04/05 01:03:38;;;;;;;3.80;1.00;;;;;;;;;;5042729;28;20045;-73
2024/04/05 01:06:07;;;;;;;2.42;0.85;;;;;;;;;;5043358;28;20056;-73
2024/04/05 01:08:35;;;;;;;4.40;0.75;;;;;;;;;;5042870;28;20041;-73
2024/04/05 01:11:04;;;;;;;3.13;0.70;;;;;;;;;;5042507;28;20045;-72
2024/04/05 01:13:33;;;;;;;2.97;0.88;;;;;;;;;;5042347;28;20049;-76
2024/04/05 01:16:06;;;;;;;3.55;1.20;;;;;;;;;;5025962;28;20056;-73
2024/04/05 01:18:34;;;;;;;3.85;0.80;;;;;;;;;;5042307;28;20036;-74
2024/04/05 01:21:03;;;;;;;1.05;0.77;;;;;;;;;;5043109;28;20041;-73
2024/04/05 01:23:38;;;;;;;2.80;0.80;;;;;;;;;;5042352;28;20049;-73
2024/04/05 01:26:07;;;;;;;3.28;0.90;;;;;;;;;;5042821;28;20041;-73
2024/04/05 01:28:35;;;;;;;2.85;0.70;;;;;;;;;;5042485;28;20048;-73
2024/04/05 01:31:04;;;;;;;1.77;0.82;;;;;;;;;;5043295;28;20041;-73
2024/04/05 01:33:32;;;;;;;3.22;1.00;;;;;;;;;;5042164;28;20049;-73
2024/04/05 01:36:01;;;;;;;6.18;1.00;;;;;;;;;;5042009;28;20515;-73
2024/04/05 01:38:29;;;;;;;1.52;0.88;;;;;;;;;;5042463;28;20055;-74
2024/04/05 01:40:58;;;;;;;;;;;;;;;;;;5025977;28;20051;-73
2024/04/05 01:43:26;;;;;;;1.27;0.80;;;;;;;;;;5042010;28;19928;-74
2024/04/05 01:45:55;;;;;;;0.90;0.73;;;;;;;;;;5041697;28;20496;-74
2024/04/05 01:48:23;;;;;;;8.77;1.00;;;;;;;;;;5041565;28;20048;-74
2024/04/05 01:50:54;;;;;;;3.90;0.85;;;;;;;;;;5042039;28;20053;-74
2024/04/05 01:53:23;;;;;;;3.35;1.08;;;;;;;;;;5041730;28;20500;-73
2024/04/05 01:55:52;;;;;;;2.25;1.00;;;;;;;;;;5025553;28;20695;-73
2024/04/05 01:58:20;;;;;;;2.70;1.13;;;;;;;;;;5042257;28;20068;-74
2024/04/05 02:00:48;;;;;;;3.13;1.25;;;;;;;;;;5042245;28;20483;-75
2024/04/05 02:03:17;;;;;;;3.63;0.80;;;;;;;;;;5042373;28;20045;-73
2024/04/05 02:05:46;;;;;;;3.38;0.90;;;;;;;;;;5042029;28;20436;-74
2024/04/05 02:08:14;;;;;;;2.53;0.90;;;;;;;;;;5041887;28;20053;-73
2024/04/05 02:10:43;;;;;;;3.17;0.85;;;;;;;;;;5041704;28;20049;-75
2024/04/05 02:13:11;;;;;;;3.85;1.10;;;;;;;;;;5041716;28;20061;-73
2024/04/05 02:15:44;;;;;;;3.10;1.10;;;;;;;;;;5041479;28;20037;-74
2024/04/05 02:18:14;;;;;;;4.75;1.08;;;;;;;;;;5025210;28;20053;-74
2024/04/05 02:20:53;;;;;;;2.70;1.05;;;;;;;;;;5041026;28;20554;-73
2024/04/05 02:23:21;;;;;;;1.75;0.93;;;;;;;;;;5041463;28;20045;-73
2024/04/05 02:25:51;;;;;;;3.53;1.17;;;;;;;;;;5040808;28;20060;-73
2024/04/05 02:28:19;;;;;;;2.40;0.90;;;;;;;;;;5024755;28;20052;-73
2024/04/05 02:30:53;;;;;;;1.00;0.80;;;;;;;;;;5041029;28;20546;-74
2024/04/05 02:33:21;;;;;;;4.78;1.08;;;;;;;;;;5025305;28;20052;-74
2024/04/05 02:35:59;;;;;;;1.73;1.00;;;;;;;;;;5041693;28;20055;-73
2024/04/05 02:38:28;;;;;;;4.30;1.00;;;;;;;;;;5041040;28;20063;-74
2024/04/05 02:40:56;;;;;;;1.52;0.90;;;;;;;;;;5041022;28;20550;-74
2024/04/05 02:43:25;;;;;;;2.60;1.00;;;;;;;;;;5041111;28;20051;-74
2024/04/05 02:45:54;;;;;;;6.93;1.25;;;;;;;;;;5041066;28;20049;-74
2024/04/05 02:48:24;;;;;;;2.53;0.90;;;;;;;;;;5040931;28;20056;-74
2024/04/05 02:50:52;;;;;;;1.52;0.95;;;;;;;;;;5041538;28;20514;-73
2024/04/05 02:53:20;;;;;;;2.97;1.20;;;;;;;;;;5024759;28;20053;-73
2024/04/05 02:55:48;;;;;;;1.92;0.90;;;;;;;;;;5041473;28;20060;-73
2024/04/05 02:58:17;;;;;;;2.30;1.13;;;;;;;;;;5039993;28;20040;-73
2024/04/05 03:00:48;;;;;;;2.42;1.17;;;;;;;;;;5040611;28;20530;-74
2024/04/05 03:03:17;;;;;;;1.23;0.77;;;;;;;;;;5040606;28;20047;-73
2024/04/05 03:05:45;;;;;;;3.45;1.10;;;;;;;;;;5040335;28;20052;-73
2024/04/05 03:08:15;;;;;;;2.17;0.98;;;;;;;;;;5040157;28;20037;-75
2024/04/05 03:10:43;;;;;;;2.35;1.20;;;;;;;;;;5040836;28;20064;-72
2024/04/05 03:13:12;;;;;;;4.07;1.23;;;;;;;;;;5040742;28;20052;-74
2024/04/05 03:15:40;;;;;;;5.00;1.02;;;;;;;;;;5040264;28;20041;-74
2024/04/05 03:18:10;;;;;;;1.90;1.05;;;;;;;;;;5040556;28;20033;-74
2024/04/05 03:20:38;;;;;;;3.53;0.85;;;;;;;;;;5040659;28;20037;-74
2024/04/05 03:23:07;;;;;;;4.82;1.10;;;;;;;;;;5040357;28;20060;-73
2024/04/05 03:25:36;;;;;;;4.45;1.13;;;;;;;;;;5040780;28;20052;-73
2024/04/05 03:28:05;;;;;;;1.63;0.90;;;;;;;;;;5041088;28;20408;-73
2024/04/05 03:30:36;;;;;;;1.67;1.08;;;;;;;;;;5040290;28;20504;-74
2024/04/05 03:33:05;;;;;;;4.45;1.00;;;;;;;;;;5040570;28;20855;-74
2024/04/05 03:35:38;;;;;;;1.80;0.98;;;;;;;;;;5040174;28;20056;-74
2024/04/05 03:38:06;;;;;;;4.70;0.80;;;;;;;;;;5023702;28;20052;-74
2024/04/05 03:40:39;;;;;;;6.00;1.10;;;;;;;;;;5024271;28;20045;-74
2024/04/05 03:43:09;;;;;;;3.13;1.00;;;;;;;;;;5040959;28;20591;-73
2024/04/05 03:45:37;;;;;;;2.13;0.90;;;;;;;;;;5040310;28;20424;-75
2024/04/05 03:48:06;;;;;;;6.53;1.13;;;;;;;;;;5040481;28;20045;-73
2024/04/05 03:50:34;;;;;;;2.15;1.05;;;;;;;;;;5040694;28;20537;-73
2024/04/05 03:53:03;;;;;;;1.38;0.82;;;;;;;;;;5041004;28;20056;-74
2024/04/05 03:55:32;;;;;;;4.10;1.02;;;;;;;;;;5039453;28;20588;-73
2024/04/05 03:58:00;;;;;;;1.67;1.02;;;;;;;;;;5040602;28;20500;-73
2024/04/05 04:00:28;;;;;;;2.22;1.05;;;;;;;;;;5040120;28;20048;-73
2024/04/05 04:02:58;;;;;;;3.90;0.95;;;;;;;;;;5040270;28;20527;-74
2024/04/05 04:05:27;;;;;;;3.90;1.08;;;;;;;;;;5039791;28;20048;-74
2024/04/05 04:07:56;;;;;;;4.80;1.30;;;;;;;;;;5039782;28;20053;-74
2024/04/05 04:10:26;;;;;;;5.30;1.40;;;;;;;;;;5041747;28;20048;-73
2024/04/05 04:12:55;;;;;;;4.68;1.20;;;;;;;;;;5044147;28;20053;-74
2024/04/05 04:15:23;;;;;;;1.63;0.82;;;;;;;;;;5044173;28;20045;-74
2024/04/05 04:17:52;;;;;;;4.00;1.02;;;;;;;;;;5043945;28;20057;-74
2024/04/05 04:20:21;;;;;;;4.18;0.90;;;;;;;;;;5043846;28;20045;-73
2024/04/05 04:22:50;;;;;;;1.58;0.65;;;;;;;;;;5027695;28;20041;-74
2024/04/05 04:25:18;;;;;;;2.75;1.15;;;;;;;;;;5043537;28;20040;-74
2024/04/05 04:27:48;;;;;;;1.67;0.77;;;;;;;;;;5043655;28;20040;-74
2024/04/05 04:30:16;;;;;;;1.55;0.80;;;;;;;;;;5043253;28;20049;-74
2024/04/05 04:32:45;;;;;;;2.95;0.93;;;;;;;;;;5042884;28;20523;-74
2024/04/05 04:35:14;;;;;;;1.73;0.70;;;;;;;;;;5043148;28;20526;-73
2024/04/05 04:37:43;;;;;;;3.38;1.00;;;;;;;;;;5043085;28;20041;-74
2024/04/05 04:40:11;;;;;;;1.33;0.93;;;;;;;;;;5042870;28;20056;-74
2024/04/05 04:42:40;;;;;;;4.57;1.00;;;;;;;;;;5043728;28;20056;-73
2024/04/05 04:45:09;;;;;;;3.20;1.00;;;;;;;;;;5026235;28;20053;-73
2024/04/05 04:47:38;;;;;;;;;;;;;;;;;;5027307;28;20041;-74
2024/04/05 04:50:06;;;;;;;3.00;1.27;;;;;;;;;;5043491;28;19931;-73
2024/04/05 04:52:37;;;;;;;1.83;0.90;;;;;;;;;;5043490;28;20052;-73
2024/04/05 04:55:06;;;;;;;2.90;0.90;;;;;;;;;;5043179;28;20060;-75
2024/04/05 04:57:35;;;;;;;3.53;1.00;;;;;;;;;;5026975;28;20048;-73
2024/04/05 05:00:04;;;;;;;3.97;1.02;;;;;;;;;;5042605;28;20052;-73
2024/04/05 05:02:32;;;;;;;5.18;0.80;;;;;;;;;;5043560;28;20049;-73
2024/04/05 05:05:01;;;;;;;2.60;0.77;;;;;;;;;;5043589;28;20393;-74
2024/04/05 05:07:31;;;;;;;3.60;0.80;;;;;;;;;;5043692;28;20059;-74
2024/04/05 05:09:59;;;;;;;3.60;1.13;;;;;;;;;;5042297;28;20033;-73
2024/04/05 05:12:28;;;;;;;3.72;1.10;;;;;;;;;;5042302;28;20052;-73
2024/04/05 05:14:56;;;;;;;4.65;1.10;;;;;;;;;;5042324;28;20045;-73
2024/04/05 05:17:24;;;;;;;4.82;1.08;;;;;;;;;;5042254;28;20431;-73
2024/04/05 05:19:53;;;;;;;1.95;1.10;;;;;;;;;;5042357;28;20432;-73
2024/04/05 05:22:22;;;;;;;3.00;0.85;;;;;;;;;;5041245;28;20045;-74
2024/04/05 05:24:50;;;;;;;2.75;1.17;;;;;;;;;;5042175;28;20068;-73
2024/04/05 05:27:19;;;;;;;4.70;1.15;;;;;;;;;;5042257;28;20051;-74
2024/04/05 05:29:47;;;;;;;3.05;0.98;;;;;;;;;;5042047;28;20096;-74
2024/04/05 05:32:15;;;;;;;3.08;0.93;;;;;;;;;;5042832;28;20040;-74
2024/04/05 05:34:46;;;;;;;3.25;0.80;;;;;;;;;;5042916;28;20044;-73
2024/04/05 05:37:15;;;;;;;8.75;1.10;;;;;;;;;;5042136;28;20839;-74
2024/04/05 05:39:43;;;;;;;5.65;0.85;;;;;;;;;;5042491;28;20045;-73
2024/04/05 05:42:13;;;;;;;2.22;1.00;;;;;;;;;;5042014;28;20055;-74
2024/04/05 05:44:41;;;;;;;5.43;1.00;;;;;;;;;;5042455;28;20539;-74
2024/04/05 05:47:10;;;;;;;2.85;0.80;;;;;;;;;;5042044;28;20412;-73
2024/04/05 05:49:39;;;;;;;6.05;1.00;;;;;;;;;;5042416;28;20049;-73
2024/04/05 05:52:08;;;;;;;4.65;1.10;;;;;;;;;;5042055;28;20041;-73
2024/04/05 05:54:36;;;;;;;5.05;1.00;;;;;;;;;;5042079;28;20412;-74
2024/04/05 05:57:05;;;;;;;4.78;1.10;;;;;;;;;;5026159;28;20052;-73
2024/04/05 05:59:33;;;;;;;4.35;1.00;;;;;;;;;;5041765;28;20759;-73
2024/04/05 06:02:02;;;;;;;1.98;0.82;;;;;;;;;;5041989;28;20049;-73
2024/04/05 06:04:31;;;;;;;3.53;0.70;;;;;;;;;;5041980;28;20404;-73
2024/04/05 06:07:00;;;;;;;2.15;0.73;;;;;;;;;;5040818;28;20056;-73
2024/04/05 06:09:29;;;;;;;2.33;0.80;;;;;;;;;;5041711;28;20698;-73
2024/04/05 06:11:58;;;;;;;;;;;;;;;;;;5042487;28;20040;-73
2024/04/05 06:14:28;;;;;;;1.85;0.68;;;;;;;;;;5025428;28;19924;-73
2024/04/05 06:16:57;;;;;;;3.55;0.90;;;;;;;;;;5024386;28;20052;-74
2024/04/05 06:19:26;;;;;;;3.08;0.77;;;;;;;;;;5041297;28;20063;-73
2024/04/05 06:21:56;;;;;;;;;;;;;;;;;;5041791;28;20049;-73
2024/04/05 06:24:24;;;;;;;2.75;0.90;;;;;;;;;;5041608;28;19947;-72
2024/04/05 06:26:52;;;;;;;3.03;0.88;;;;;;;;;;5041811;28;20052;-72
2024/04/05 06:29:21;;;;;;;3.85;0.75;;;;;;;;;;5041511;28;20055;-73
2024/04/05 06:31:50;;;;;;;2.05;0.80;;;;;;;;;;5042063;28;20041;-73
2024/04/05 06:34:18;;;;;;;3.58;0.82;;;;;;;;;;5041428;28;20052;-72
2024/04/05 06:36:47;;;;;;;5.18;0.90;;;;;;;;;;5024343;28;20476;-73
2024/04/05 06:39:15;;;;;;;2.95;0.85;;;;;;;;;;5040802;28;20495;-77
2024/04/05 06:41:44;;;;;;;3.40;0.70;;;;;;;;;;5040707;28;20049;-73
2024/04/05 06:44:14;;;;;;;2.13;0.90;;;;;;;;;;5040692;28;20048;-73
2024/04/05 06:46:43;;;;;;;3.42;0.88;;;;;;;;;;5041328;28;20735;-72
2024/04/05 06:49:14;;;;;;;2.28;0.88;;;;;;;;;;5041139;28;20790;-73
2024/04/05 06:51:43;;;;;;;2.15;0.65;;;;;;;;;;5041084;28;20049;-72
2024/04/05 06:54:12;;;;;;;2.58;1.02;;;;;;;;;;5040882;28;20766;-72
2024/04/05 06:56:40;;;;;;;2.25;0.90;;;;;;;;;;5040310;28;20049;-72
2024/04/05 06:59:08;;;;;;;6.47;1.10;;;;;;;;;;5040728;28;20049;-73
2024/04/05 07:01:37;;;;;;;4.97;1.30;;;;;;;;;;5041477;28;20075;-73
2024/04/05 07:04:06;;;;;;;2.00;0.73;;;;;;;;;;5040567;28;20424;-73
2024/04/05 07:06:34;;;;;;;3.20;1.10;;;;;;;;;;5040879;28;20060;-73
2024/04/05 07:09:05;;;;;;;5.18;1.20;;;;;;;;;;5040789;28;20040;-74
2024/04/05 07:11:33;;;;;;;7.15;1.10;;;;;;;;;;5040515;28;20045;-73
2024/04/05 07:14:02;;;;;;;2.72;1.02;;;;;;;;;;5040829;28;20048;-72
2024/04/05 07:16:30;;;;;;;;;;;;;;;;;;5041990;28;20045;-73
2024/04/05 07:18:59;;;;;;;2.95;1.00;;;;;;;;;;5042136;28;19925;-73
2024/04/05 07:21:28;;;;;;;2.40;1.02;;;;;;;;;;5040313;28;20052;-73
2024/04/05 07:23:56;;;;;;;2.97;1.02;;;;;;;;;;5040194;28;20048;-73
2024/04/05 07:26:25;;;;;;;2.67;1.15;;;;;;;;;;5040471;28;20045;-73
2024/04/05 07:28:54;;;;;;;4.35;1.15;;;;;;;;;;5040399;28;20608;-72
2024/04/05 07:31:23;;;;;;;4.97;0.90;;;;;;;;;;5040723;28;20059;-73
2024/04/05 07:33:52;;;;;;;1.23;0.80;;;;;;;;;;5024452;28;20063;-73
2024/04/05 07:36:20;;;;;;;2.95;0.98;;;;;;;;;;5040572;28;20045;-73
2024/04/05 07:38:51;;;;;;;4.68;0.82;;;;;;;;;;5039917;28;20590;-72
2024/04/05 07:41:21;;;;;;;2.67;0.90;;;;;;;;;;5040147;28;20045;-73
2024/04/05 07:43:52;;;;;;;3.78;1.15;;;;;;;;;;5040351;28;20053;-72
2024/04/05 07:46:21;;;;;;;7.55;1.00;;;;;;;;;;5044603;28;20688;-72
2024/04/05 07:48:50;;;;;;;6.93;1.30;;;;;;;;;;5044524;28;20410;-73
2024/04/05 07:51:18;;;;;;;6.05;1.10;;;;;;;;;;5044755;28;20052;-74
2024/04/05 07:53:47;;;;;;;2.33;1.13;;;;;;;;;;5043940;28;20045;-73
2024/04/05 07:56:16;;;;;;;3.60;1.10;;;;;;;;;;5044229;28;20064;-74
2024/04/05 07:58:44;;;;;;;6.93;0.90;;;;;;;;;;5044361;28;20057;-74
2024/04/05 08:01:13;;;;;;;5.20;1.00;;;;;;;;;;5044240;28;20045;-73
2024/04/05 08:03:42;;;;;;;3.08;1.05;;;;;;;;;;5043848;28;20041;-72
2024/04/05 08:06:11;;;;;;;1.67;1.00;;;;;;;;;;5044093;28;20049;-73
2024/04/05 08:08:40;;;;;;;7.82;1.10;;;;;;;;;;5044659;28;20504;-73
2024/04/05 08:11:08;;;;;;;1.25;0.98;;;;;;;;;;5043911;28;20048;-75
2024/04/05 08:13:37;;;;;;;2.70;1.17;;;;;;;;;;5043796;28;20451;-74
2024/04/05 08:16:06;;;;;;;4.03;1.08;;;;;;;;;;5026891;28;20052;-73
2024/04/05 08:18:34;;;;;;;2.20;0.90;;;;;;;;;;5043908;28;20060;-73
2024/04/05 08:21:04;;;;;;;3.05;0.88;;;;;;;;;;5044016;28;20045;-73
2024/04/05 08:23:32;;;;;;;3.53;0.90;;;;;;;;;;5043118;28;20045;-74
2024/04/05 08:26:02;;;;;;;4.20;1.00;;;;;;;;;;5043994;28;20045;-73
2024/04/05 08:28:30;;;;;;;6.15;1.23;;;;;;;;;;5043535;28;20506;-73
2024/04/05 08:30:59;;;;;;;3.60;0.90;;;;;;;;;;5027144;28;20427;-73
2024/04/05 08:33:28;;;;;;;1.55;0.90;;;;;;;;;;5043446;28;20048;-73
2024/04/05 08:35:56;;;;;;;2.08;0.88;;;;;;;;;;5043797;28;20056;-73
2024/04/05 08:38:25;;;;;;;2.25;0.80;;;;;;;;;;5043992;28;20056;-73
2024/04/05 08:40:55;;;;;;;3.90;1.05;;;;;;;;;;5027618;28;20057;-73
2024/04/05 08:43:27;;;;;;;2.22;0.75;;;;;;;;;;5043322;28;20045;-74
2024/04/05 08:45:57;;;;;;;8.55;1.30;;;;;;;;;;5043206;28;20049;-73
2024/04/05 08:48:33;;;;;;;2.90;0.73;;;;;;;;;;5042570;28;20075;-73
2024/04/05 08:51:07;;;;;;;4.57;1.08;;;;;;;;;;5042979;28;20037;-73
2024/04/05 08:53:35;;;;;;;2.92;0.80;;;;;;;;;;5043242;28;20048;-73
2024/04/05 08:56:06;;;;;;;2.88;1.00;;;;;;;;;;5041934;28;20063;-73
2024/04/05 08:58:35;;;;;;;4.70;0.70;;;;;;;;;;5043303;28;20512;-73
2024/04/05 09:01:04;;;;;;;3.15;0.75;;;;;;;;;;5042235;28;20053;-73
2024/04/05 09:03:33;;;;;;;3.55;0.80;;;;;;;;;;5025308;28;20045;-74
2024/04/05 09:06:02;;;;;;;5.63;1.10;;;;;;;;;;5021721;28;20041;-74
2024/04/05 09:08:32;;;;;;;3.80;0.98;;;;;;;;;;5004131;28;20033;-74
2024/04/05 09:11:02;;;;;;;3.70;0.80;;;;;;;;;;5018715;28;20501;-74
2024/04/05 09:13:30;;;;;;;5.63;1.40;;;;;;;;;;5022941;28;20049;-73
2024/04/05 09:16:00;;;;;;;4.38;1.13;;;;;;;;;;5021751;28;20056;-74
2024/04/05 09:18:30;;;;;;;1.65;0.70;;;;;;;;;;5023187;28;20045;-73
2024/04/05 09:20:59;;;;;;;1.92;1.02;;;;;;;;;;5022681;28;20422;-73
2024/04/05 09:23:27;;;;;;;3.42;0.93;;;;;;;;;;5022141;28;20060;-73
2024/04/05 09:26:02;;;;;;;1.83;0.68;;;;;;;;;;5023243;28;20506;-73
2024/04/05 09:28:31;;;;;;;3.00;0.73;;;;;;;;;;5023322;28;20413;-72
2024/04/05 09:31:00;;;;;;;3.95;0.68;;;;;;;;;;5023156;28;20053;-73
2024/04/05 09:33:29;;;;;;;2.28;0.60;;;;;;;;;;5022706;28;20041;-73
2024/04/05 09:36:00;;;;;;;1.02;0.52;;;;;;;;;;5022306;28;20049;-73
2024/04/05 09:38:34;;;;;;;2.97;0.88;;;;;;;;;;5022337;28;20049;-73
2024/04/05 09:41:03;;;;;;;3.05;0.73;;;;;;;;;;5005490;28;20053;-74
2024/04/05 09:43:33;;;;;;;4.85;0.90;;;;;;;;;;5022128;28;20049;-73
2024/04/05 09:46:04;;;;;;;0.95;0.52;;;;;;;;;;5022108;28;20045;-73
2024/04/05 09:48:34;;;;;;;3.17;0.70;;;;;;;;;;5022402;28;20050;-74
2024/04/05 09:51:14;;;;;;;1.80;0.55;;;;;;;;;;5021882;28;20048;-73
2024/04/05 09:53:50;;;;;;;5.63;0.80;;;;;;;;;;5021623;28;20641;-74
2024/04/05 09:56:24;;;;;;;0.82;0.50;;;;;;;;;;5022028;28;20424;-74
2024/04/05 09:58:55;;;;;;;1.55;0.73;;;;;;;;;;5022276;28;20042;-73
2024/04/05 10:01:24;;;;;;;1.67;0.80;;;;;;;;;;5005859;28;20485;-72
2024/04/05 10:03:54;;;;;;;4.43;0.75;;;;;;;;;;5006243;28;20057;-74
2024/04/05 10:06:34;;;;;;;1.80;0.75;;;;;;;;;;5021699;28;20805;-77
2024/04/05 10:09:16;;;;;;;5.93;0.60;;;;;;;;;;5005462;28;20045;-75
2024/04/05 10:11:46;;;;;;;10.73;1.15;;;;;;;;;;5022636;28;20512;-73
2024/04/05 10:14:25;;;;;;;5.85;0.80;;;;;;;;;;5021182;28;20547;-74
2024/04/05 10:17:14;;;;;;;2.30;0.68;;;;;;;;;;5021729;28;20075;-76
2024/04/05 10:19:43;;;;;;;1.77;0.55;;;;;;;;;;5022291;28;20056;-75
2024/04/05 10:22:19;;;;;;;3.75;0.70;;;;;;;;;;5022135;28;20412;-76
2024/04/05 10:24:47;;;;;;;2.63;0.90;;;;;;;;;;5022258;28;20050;-75
2024/04/05 10:27:24;;;;;;;0.93;0.60;;;;;;;;;;5005427;28;20390;-75
2024/04/05 10:30:08;;;;;;;4.22;0.70;;;;;;;;;;5021121;28;20042;-74
2024/04/05 10:32:37;;;;;;;5.10;0.63;;;;;;;;;;5021520;28;20042;-73
2024/04/05 10:35:14;;;;;;;9.65;0.80;;;;;;;;;;5005225;28;20424;-75
2024/04/05 10:37:43;;;;;;;2.08;0.95;;;;;;;;;;5021618;28;20041;-74
2024/04/05 10:40:13;;;;;;;2.20;0.63;;;;;;;;;;5021131;28;20049;-75
2024/04/05 10:42:43;;;;;;;3.30;0.70;;;;;;;;;;5020990;28;20080;-74
2024/04/05 10:45:16;;;;;;;;;;;;;;;;;;5021779;28;20044;-75
2024/04/05 10:47:55;;;;;;;2.40;1.00;;;;;;;;;;5021158;28;19936;-75
2024/04/05 10:50:23;;;;;;;3.22;0.90;;;;;;;;;;5021668;28;20041;-75
2024/04/05 10:52:53;;;;;;;5.47;1.10;;;;;;;;;;5021366;28;20033;-75
2024/04/05 10:55:25;;;;;;;;;;;;;;;;;;5021842;28;20052;-74
2024/04/05 10:57:56;;;;;;;1.25;0.70;;;;;;;;;;5021419;28;19925;-74
2024/04/05 11:00:25;;;;;;;3.47;1.00;;;;;;;;;;5020695;28;20049;-74
2024/04/05 11:02:54;;;;;;;2.67;0.98;;;;;;;;;;5003936;28;20072;-73
2024/04/05 11:05:22;;;;;;;1.50;0.82;;;;;;;;;;5004455;28;20056;-73
2024/04/05 11:08:01;;;;;;;2.50;0.88;;;;;;;;;;5021007;28;20045;-75
2024/04/05 11:10:35;;;;;;;1.80;0.65;;;;;;;;;;5021353;28;20060;-76
2024/04/05 11:13:18;;;;;;;3.33;0.90;;;;;;;;;;5020248;28;20045;-74
2024/04/05 11:15:48;;;;;;;4.10;0.90;;;;;;;;;;5020467;28;20038;-75
2024/04/05 11:18:16;;;;;;;1.60;0.60;;;;;;;;;;5021262;28;20045;-80
2024/04/05 11:20:48;;;;;;;2.25;0.90;;;;;;;;;;5019768;28;20046;-74
2024/04/05 11:23:19;;;;;;;1.70;0.50;;;;;;;;;;5020448;28;20493;-74
2024/04/05 11:25:55;;;;;;;2.58;0.70;;;;;;;;;;5020707;28;20042;-74
2024/04/05 11:28:25;;;;;;;3.13;0.60;;;;;;;;;;5020901;28;20049;-74
2024/04/05 11:30:54;;;;;;;2.22;0.45;;;;;;;;;;5020975;28;20053;-78
2024/04/05 11:33:22;;;;;;;4.38;0.60;;;;;;;;;;5020730;28;20444;-74
2024/04/05 11:35:53;;;;;;;4.15;0.77;;;;;;;;;;5020896;28;20049;-74
2024/04/05 11:38:22;;;;;;;2.45;0.55;;;;;;;;;;5020303;28;20417;-73
2024/04/05 11:40:50;;;;;;;1.92;0.60;;;;;;;;;;5020644;28;20048;-74
2024/04/05 11:43:18;;;;;;;0.95;0.60;;;;;;;;;;5020715;28;20042;-74
2024/04/05 11:45:47;;;;;;;2.22;1.05;;;;;;;;;;5004976;28;20056;-75
2024/04/05 11:48:16;;;;;;;1.17;0.70;;;;;;;;;;5020270;28;20064;-73
2024/04/05 11:50:44;;;;;;;1.33;0.80;;;;;;;;;;5020093;28;20048;-73
2024/04/05 11:53:13;;;;;;;3.08;0.57;;;;;;;;;;5019967;28;20056;-74
2024/04/05 11:55:41;;;;;;;0.50;0.50;;;;;;;;;;5020176;28;20056;-76
2024/04/05 11:58:10;;;;;;;1.30;0.57;;;;;;;;;;5021101;28;20046;-76
2024/04/05 12:00:39;;;;;;;0.77;0.60;;;;;;;;;;5020864;28;20060;-76
2024/04/05 12:03:07;;;;;;;0.88;0.50;;;;;;;;;;5019098;28;20058;-75
2024/04/05 12:05:38;;;;;;;0.50;0.50;;;;;;;;;;5020136;28;20049;-75
2024/04/05 12:08:08;;;;;;;3.00;0.55;;;;;;;;;;5020446;28;20408;-75
2024/04/05 12:10:37;;;;;;;2.15;0.40;;;;;;;;;;5004543;28;20053;-76
2024/04/05 12:13:06;;;;;;;3.92;0.60;;;;;;;;;;5020371;28;20519;-75
2024/04/05 12:15:37;;;;;;;3.65;0.70;;;;;;;;;;5020436;28;20056;-75
2024/04/05 12:18:06;;;;;;;1.67;0.40;;;;;;;;;;5020254;28;20386;-73
2024/04/05 12:20:35;;;;;;;0.55;0.40;;;;;;;;;;5020110;28;20057;-75
2024/04/05 12:23:03;;;;;;;1.40;0.40;;;;;;;;;;5020789;28;20049;-74
2024/04/05 12:25:32;;;;;;;1.10;0.47;;;;;;;;;;5020245;28;20598;-75
2024/04/05 12:28:00;;;;;;;1.08;0.60;;;;;;;;;;5020136;28;20050;-76
2024/04/05 12:30:29;;;;;;;2.58;0.57;;;;;;;;;;5035061;28;20419;-76
2024/04/05 12:32:58;;;;;;;1.77;0.60;;;;;;;;;;5043696;28;20412;-75
2024/04/05 12:35:27;;;;;;;1.70;0.63;;;;;;;;;;5043613;28;20472;-75
2024/04/05 12:37:57;;;;;;;4.15;0.70;;;;;;;;;;5043461;28;20053;-75
2024/04/05 12:40:39;;;;;;;2.40;0.65;;;;;;;;;;5043076;28;20064;-75
2024/04/05 12:43:08;;;;;;;2.95;0.90;;;;;;;;;;5043202;28;20041;-74
2024/04/05 12:45:38;;;;;;;2.58;0.77;;;;;;;;;;5042874;28;20041;-74
2024/04/05 12:48:07;;;;;;;0.95;0.60;;;;;;;;;;5043428;28;20636;-74
2024/04/05 12:50:36;;;;;;;2.45;0.80;;;;;;;;;;5043164;28;20072;-75
2024/04/05 12:53:05;;;;;;;4.05;0.68;;;;;;;;;;5042889;28;20049;-75
2024/04/05 12:55:33;;;;;;;2.42;0.70;;;;;;;;;;5043010;28;20052;-74
2024/04/05 12:58:02;;;;;;;2.80;0.63;;;;;;;;;;5026222;28;20674;-75
2024/04/05 13:00:33;;;;;;;3.60;0.80;;;;;;;;;;5043022;28;20049;-76
2024/04/05 13:03:02;;;;;;;2.17;0.50;;;;;;;;;;5042997;28;20048;-75
2024/04/05 13:05:30;;;;;;;1.85;0.43;;;;;;;;;;5043881;28;20052;-75
2024/04/05 13:07:59;;;;;;;4.50;0.60;;;;;;;;;;5042634;28;20052;-77
2024/04/05 13:10:29;;;;;;;3.33;0.70;;;;;;;;;;5041927;28;20044;-73
2024/04/05 13:12:58;;;;;;;2.80;0.47;;;;;;;;;;5041896;28;20056;-73
2024/04/05 13:15:34;;;;;;;3.60;0.73;;;;;;;;;;5042738;28;20072;-75
2024/04/05 13:18:04;;;;;;;2.25;0.45;;;;;;;;;;5026060;28;20060;-75
2024/04/05 13:20:32;;;;;;;6.22;0.70;;;;;;;;;;5042444;28;20044;-75
2024/04/05 13:23:01;;;;;;;2.38;0.70;;;;;;;;;;5042182;28;20053;-75
2024/04/05 13:25:34;;;;;;;4.97;0.60;;;;;;;;;;5042848;28;20504;-75
2024/04/05 13:28:06;;;;;;;0.85;0.40;;;;;;;;;;5025931;28;20420;-75
2024/04/05 13:30:35;;;;;;;0.98;0.55;;;;;;;;;;5025768;28;20037;-76
2024/04/05 13:33:03;;;;;;;2.20;0.63;;;;;;;;;;5041800;28;20045;-75
2024/04/05 13:35:32;;;;;;;4.15;0.55;;;;;;;;;;5041888;28;20824;-75
2024/04/05 13:38:00;;;;;;;4.95;1.15;;;;;;;;;;5042540;28;20747;-79
2024/04/05 13:40:29;;;;;;;4.15;0.60;;;;;;;;;;5042520;28;20512;-75
2024/04/05 13:42:58;;;;;;;4.03;0.32;;;;;;;;;;5040500;28;20052;-75
2024/04/05 13:45:28;;;;;;;5.88;0.57;;;;;;;;;;5025853;28;20052;-75
2024/04/05 13:47:56;;;;;;;4.03;0.45;;;;;;;;;;5043062;28;20040;-74
2024/04/05 13:50:24;;;;;;;0.82;0.40;;;;;;;;;;5046316;28;20049;-75
2024/04/05 13:52:54;;;;;;;1.30;0.50;;;;;;;;;;5045771;28;20060;-75
2024/04/05 13:55:23;;;;;;;3.33;0.60;;;;;;;;;;5042938;28;20049;-74
2024/04/05 13:57:51;;;;;;;;;;;;;;;;;;5008849;28;20119;-75
2024/04/05 14:00:20;;;;;;;0.30;0.30;;;;;;;;;;5041995;28;19925;-75
2024/04/05 14:02:48;;;;;;;2.05;0.60;;;;;;;;;;5041980;28;20052;-74
2024/04/05 14:05:17;;;;;;;2.80;0.57;;;;;;;;;;5042270;28;20610;-75
2024/04/05 14:07:47;;;;;;;2.22;0.60;;;;;;;;;;5041749;28;20053;-76
2024/04/05 14:10:15;;;;;;;1.45;0.45;;;;;;;;;;5041869;28;20397;-75
2024/04/05 14:12:44;;;;;;;0.60;0.35;;;;;;;;;;5025031;28;20059;-73
2024/04/05 14:15:14;;;;;;;1.75;0.50;;;;;;;;;;5041855;28;20416;-75
2024/04/05 14:17:42;;;;;;;;;;;;;;;;;;5025785;28;20041;-77
2024/04/05 14:20:11;;;;;;;2.00;0.47;;;;;;;;;;5041064;28;19920;-81
2024/04/05 14:22:39;;;;;;;2.42;0.50;;;;;;;;;;5041044;28;20049;-74
2024/04/05 14:25:09;;;;;;;1.73;0.68;;;;;;;;;;5025287;28;20053;-73
2024/04/05 14:27:38;;;;;;;5.10;0.47;;;;;;;;;;5041720;28;20528;-74
2024/04/05 14:30:07;;;;;;;1.05;0.32;;;;;;;;;;5045978;28;20049;-75
2024/04/05 14:32:36;;;;;;;1.92;0.70;;;;;;;;;;5053323;28;20052;-75
2024/04/05 14:35:06;;;;;;;0.60;0.32;;;;;;;;;;5047984;28;20049;-74
2024/04/05 14:37:57;;;;;;;2.97;0.47;;;;;;;;;;5043131;28;20052;-74
2024/04/05 14:40:26;;;;;;;1.25;0.40;;;;;;;;;;5024428;28;20049;-77
2024/04/05 14:42:56;;;;;;;0.90;0.40;;;;;;;;;;5042937;28;20045;-75
2024/04/05 14:45:25;;;;;;;4.35;0.63;;;;;;;;;;5041071;28;20037;-78
2024/04/05 14:47:54;;;;;;;1.80;0.20;;;;;;;;;;5040306;28;20549;-77
2024/04/05 14:50:23;;;;;;;1.52;0.45;;;;;;;;;;5039910;28;20397;-77
2024/04/05 14:52:51;;;;;;;3.47;0.40;;;;;;;;;;5040583;28;20041;-77
2024/04/05 14:55:20;;;;;;;2.17;0.40;;;;;;;;;;5039809;28;20056;-77
2024/04/05 14:57:48;;;;;;;1.00;0.30;;;;;;;;;;5040056;28;20424;-76
2024/04/05 15:00:18;;;;;;;2.65;0.52;;;;;;;;;;5041178;28;20049;-76